• Join FlightAware (Why Join?)
  • Login
  • US Flag 
11:19PM EDT


 

Airport Tracker/Info


-or-


 

Live Flight TrackerFlight Track Log ✈ SWA3853 ✈ 08-May-2013 ✈ KMCI - KDAL

Flight Track Log - Related Links

Times and Time Zones

All times are in EDT time to prevent confusion due to time zone crossing. See the SWA3853 flight status page for this flight to view local times or setup timezone preferences in your user account.

Time Position Orientation Groundspeed Altitude Reporting Facility
EDT Latitude Longitude Course Direction KTS MPH feet Rate Location/Type
02:52PM 39.2836 -94.6353 90° East 182 209 3,400  Level Kansas City Center
02:53PM 39.2250 -94.6175 167° South 228 262 5,600 2,940 Climbing Kansas City Center
02:54PM 39.1472 -94.6533 200° South 262 302 9,500 3,060 Climbing Kansas City Center
02:55PM 39.0711 -94.6900 201° Southwest 307 353 12,000 3,120 Climbing Kansas City Center
02:56PM 38.9672 -94.7411 201° Southwest 354 407 16,000 3,360 Climbing Kansas City Center
02:57PM 38.8733 -94.7861 200° South 371 427 19,000 3,000 Climbing Kansas City Center
02:58PM 38.7586 -94.8425 201° Southwest 390 449 22,200 2,580 Climbing Kansas City Center
02:59PM 38.6533 -94.8944 201° Southwest 418 481 24,400 2,340 Climbing Kansas City Center
03:00PM 38.5247 -94.9564 201° Southwest 437 503 27,100 2,700 Climbing Kansas City Center
03:01PM 38.4150 -95.0114 201° Southwest 440 506 30,100 2,940 Climbing Kansas City Center
03:02PM 38.3131 -95.0600 201° Southwest 413 475 33,200 2,700 Climbing Kansas City Center
03:03PM 38.1989 -95.1133 200° South 397 457 35,700 1,320 Climbing Kansas City Center
03:04PM 38.0978 -95.1533 197° South 396 456 36,000 120 Climbing Kansas City Center
03:05PM 37.9747 -95.1944 195° South 405 466 36,000  Level Kansas City Center
03:06PM 37.8544 -95.2353 195° South 409 471 36,000  Level Kansas City Center
03:07PM 37.7442 -95.2742 196° South 412 474 36,000  Level Kansas City Center
03:08PM 37.6339 -95.3103 195° South 410 472 36,000  Level Kansas City Center
03:09PM 37.5228 -95.3469 195° South 412 474 36,000 540 Level Kansas City Center
03:11PM 37.4106 -95.3856 195° South 416 479 37,200 960 Climbing Kansas City Center
03:12PM 37.2972 -95.4233 195° South 421 484 38,000 360 Climbing Kansas City Center
03:13PM 37.1600 -95.4686 195° South 424 488 38,000  Level Kansas City Center
03:14PM 37.0469 -95.5064 195° South 422 486 38,000  Level Kansas City Center
03:15PM 36.9342 -95.5442 195° South 421 484 38,000  Level Kansas City Center
03:16PM 36.8206 -95.5819 195° South 422 486 38,000  Level Kansas City Center
03:17PM 36.7092 -95.6192 195° South 419 482 38,000  Level Kansas City Center
03:18PM 36.5889 -95.6581 195° South 420 483 38,000  Level Kansas City Center
03:19PM 36.4758 -95.6964 195° South 421 484 38,000  Level Kansas City Center
03:20PM 36.3622 -95.7336 195° South 422 486 38,000  Level Kansas City Center
03:21PM 36.2372 -95.7744 195° South 425 489 38,000  Level Kansas City Center
03:22PM 36.1189 -95.7625 175° South 437 503 38,000  Level Kansas City Center
03:23PM 35.9769 -95.7164 165° South 441 507 38,000  Level Kansas City Center
03:24PM 35.8583 -95.6792 166° South 441 507 38,000  Level Kansas City Center
03:25PM 35.7397 -95.6419 166° South 440 506 38,000  Level Kansas City Center
03:26PM 35.6208 -95.6039 165° South 441 507 38,000  Level Kansas City Center
03:27PM 35.5019 -95.5656 165° South 441 507 38,000  Level Kansas City Center
03:28PM 35.3817 -95.5294 166° South 433 498 38,000  Level Fort Worth Center
03:29PM 35.2372 -95.4869 166° South 438 504 38,000  Level Fort Worth Center
03:30PM 35.1178 -95.4489 165° South 438 504 38,000 -240 Level Fort Worth Center
03:31PM 34.9983 -95.4264 171° South 438 504 37,600 -720 Descending Fort Worth Center
03:32PM 34.8733 -95.4242 179° South 438 504 36,600 -960 Descending Fort Worth Center
03:33PM 34.7614 -95.4800 202° Southwest 426 490 35,700 -960 Descending Fort Worth Center
03:34PM 34.6519 -95.5406 204° Southwest 431 496 34,700 -960 Descending Fort Worth Center
03:35PM 34.5400 -95.6058 206° Southwest 438 504 33,800 -960 Descending Fort Worth Center
03:36PM 34.4303 -95.6661 204° Southwest 438 504 32,800 -1,020 Descending Fort Worth Center
03:37PM 34.3186 -95.7314 206° Southwest 438 504 31,800 -1,200 Descending Fort Worth Center
03:38PM 34.2069 -95.7989 207° Southwest 443 510 30,500 -1,860 Descending Fort Worth Center
03:39PM 34.0992 -95.8583 205° Southwest 443 510 28,100 -2,400 Descending Fort Worth Center
03:40PM 33.9975 -95.9178 206° Southwest 427 491 25,700 -2,880 Descending Fort Worth Center
03:42PM 33.7964 -96.0339 206° Southwest 403 464 19,500 -3,000 Descending Fort Worth Center
03:43PM 33.6989 -96.0903 206° Southwest 398 458 16,800 -2,280 Descending Fort Worth Center
03:44PM 33.6056 -96.1439 206° Southwest 392 451 15,000 -2,280 Descending Fort Worth Center
03:45PM 33.5164 -96.1925 204° Southwest 363 418 12,300 -2,340 Descending Fort Worth Center
03:46PM 33.4353 -96.2386 205° Southwest 343 395 10,400 -1,200 Descending Fort Worth Center
03:47PM 33.3669 -96.2767 205° Southwest 317 365 10,000 -540 Descending Fort Worth Center
03:48PM 33.2836 -96.3225 205° Southwest 307 353 9,400 -840 Descending Fort Worth Center
03:49PM 33.2361 -96.3778 224° Southwest 283 326 8,400 -1,440 Descending Fort Worth Center
03:50PM 33.1931 -96.4578 237° Southwest 271 312 6,600 -1,500 Descending Fort Worth Center
03:51PM 33.1581 -96.5250 238° Southwest 271 312 5,400 -840 Descending Fort Worth Center
03:52PM 33.1250 -96.5972 241° Southwest 271 312 5,000 -240 Descending Fort Worth Center
03:53PM 33.0839 -96.6747 238° Southwest 261 300 5,000  Level Fort Worth Center
03:54PM 33.0667 -96.7167 244° Southwest 257 296 5,000  Level Dallas / Fort Worth TRACON
03:55PM 33.0167 -96.7833 228° Southwest 255 293 5,000 -300 Level Dallas / Fort Worth TRACON
03:56PM 32.9833 -96.8333 232° Southwest 202 232 4,400 -840 Descending Dallas / Fort Worth TRACON
03:57PM 32.9500 -96.8833 232° Southwest 153 176 3,400 -1,200 Descending Dallas / Fort Worth TRACON
03:58PM 32.9167 -96.9167 220° Southwest 131 151 1,900 -1,140 Descending Dallas / Fort Worth TRACON
03:59PM 32.8833 -96.8833 140° Southeast 130 150 1,100 -840 Descending Dallas / Fort Worth TRACON
04:02PM 32.8471 -96.8518 228° Southwest  Level Estimated